Time;durP1;ratioP1;P1;durP2;ratioP2;P2;SDS_P1;SDS_P2;PMS_P1;PMS_P2;Temp;Humidity;BMP_temperature;BMP_pressure;BME280_temperature;BME280_humidity;BME280_pressure;Samples;Min_cycle;Max_cycle;Signal;HPM_P1;HPM_P2
2023/02/18 05:30:31;;;;;;;4.60;1.67;;;12.70;71.60;;;;;;6101072;23;20087;-72
2023/02/18 05:32:57;;;;;;;3.88;1.63;;;12.70;71.70;;;;;;6124155;23;20049;-72
2023/02/18 05:35:22;;;;;;;5.65;1.42;;;12.70;71.70;;;;;;6128329;23;20002;-72
2023/02/18 05:37:48;;;;;;;2.58;1.38;;;12.60;71.30;;;;;;6128354;23;20443;-72
2023/02/18 05:40:14;;;;;;;1.90;1.25;;;12.60;71.20;;;;;;6129237;23;20104;-72
2023/02/18 05:42:39;;;;;;;3.83;1.20;;;12.60;71.20;;;;;;6129921;23;19998;-72
2023/02/18 05:45:05;;;;;;;2.05;1.27;;;12.70;71.20;;;;;;6129929;23;20009;-72
2023/02/18 05:47:31;;;;;;;1.52;1.17;;;12.70;70.90;;;;;;6103264;23;20383;-72
2023/02/18 05:49:57;;;;;;;2.70;1.08;;;12.70;71.00;;;;;;6129564;23;20355;-72
2023/02/18 05:52:22;;;;;;;3.53;1.20;;;12.50;71.50;;;;;;6129863;23;20405;-72
2023/02/18 05:54:48;;;;;;;3.10;1.27;;;12.50;71.60;;;;;;6129920;23;20014;-72
2023/02/18 05:57:14;;;;;;;2.63;1.38;;;12.60;71.90;;;;;;6129572;23;20001;-72
2023/02/18 05:59:40;;;;;;;5.78;1.58;;;12.60;71.90;;;;;;6129441;23;20006;-72
2023/02/18 06:02:05;;;;;;;1.80;1.30;;;12.60;71.80;;;;;;6127320;23;20092;-73
2023/02/18 06:04:31;;;;;;;1.60;1.40;;;12.60;72.10;;;;;;6103874;23;20335;-72
2023/02/18 06:06:57;;;;;;;7.50;1.67;;;12.50;72.40;;;;;;6130292;23;20435;-73
2023/02/18 06:09:23;;;;;;;3.42;1.20;;;12.60;72.60;;;;;;6103361;23;20013;-72
2023/02/18 06:11:49;;;;;;;2.00;1.42;;;12.60;72.40;;;;;;6104115;23;20006;-72
2023/02/18 06:14:15;;;;;;;3.20;1.27;;;12.60;72.40;;;;;;6129933;23;20009;-72
2023/02/18 06:16:40;;;;;;;2.53;1.45;;;12.60;72.70;;;;;;6129637;23;20008;-72
2023/02/18 06:19:06;;;;;;;1.90;1.30;;;12.60;72.70;;;;;;6129802;23;20001;-73
2023/02/18 06:21:32;;;;;;;3.55;1.27;;;12.60;72.90;;;;;;6129386;23;20010;-72
2023/02/18 06:23:57;;;;;;;2.55;1.40;;;12.60;72.90;;;;;;6129506;23;20002;-73
2023/02/18 06:26:23;;;;;;;4.88;1.48;;;12.60;73.10;;;;;;6129772;23;20002;-73
2023/02/18 06:28:49;;;;;;;1.85;1.27;;;12.60;73.10;;;;;;6103415;23;20006;-72
2023/02/18 06:31:15;;;;;;;4.38;2.03;;;12.60;73.20;;;;;;6129631;23;20018;-73
2023/02/18 06:33:40;;;;;;;4.20;1.85;;;12.60;73.40;;;;;;6129396;23;20057;-72
2023/02/18 06:36:07;;;;;;;5.65;2.00;;;12.50;74.00;;;;;;6129968;23;20056;-72
2023/02/18 06:38:38;;;;;;;4.57;1.90;;;12.50;74.20;;;;;;6129174;23;20438;-73
2023/02/18 06:41:04;;;;;;;2.78;1.63;;;12.50;74.20;;;;;;6103766;23;20013;-72
2023/02/18 06:43:30;;;;;;;4.95;1.98;;;12.50;74.50;;;;;;6129552;23;20009;-72
2023/02/18 06:45:55;;;;;;;3.03;1.90;;;12.50;74.50;;;;;;6130028;23;20002;-72
2023/02/18 06:48:21;;;;;;;2.55;1.75;;;12.50;74.50;;;;;;6129241;23;20009;-73
2023/02/18 06:50:48;;;;;;;3.15;1.55;;;12.50;74.50;;;;;;6129263;23;20009;-72
2023/02/18 06:53:15;;;;;;;3.78;1.98;;;12.50;74.80;;;;;;6129321;23;20006;-79
2023/02/18 06:55:42;;;;;;;3.33;1.73;;;12.50;74.70;;;;;;6103447;23;20005;-76
2023/02/18 06:58:09;;;;;;;6.55;1.60;;;12.50;74.60;;;;;;6103881;23;20434;-78
2023/02/18 07:00:35;;;;;;;2.53;1.75;;;12.50;74.70;;;;;;6128880;23;20012;-74
2023/02/18 07:03:01;;;;;;;4.35;1.80;;;12.60;74.60;;;;;;6129168;23;19998;-75
2023/02/18 07:05:27;;;;;;;1.80;1.27;;;12.50;74.80;;;;;;6129562;23;20729;-75
2023/02/18 07:07:52;;;;;;;4.68;1.80;;;12.50;74.90;;;;;;6103216;23;20002;-75
2023/02/18 07:10:18;;;;;;;3.05;1.80;;;12.50;74.90;;;;;;6103578;23;20021;-75
2023/02/18 07:12:44;;;;;;;2.08;1.33;;;12.60;74.90;;;;;;6129049;23;20396;-76
2023/02/18 07:15:10;;;;;;;4.07;1.98;;;12.60;74.80;;;;;;6128776;23;20002;-75
2023/02/18 07:17:36;;;;;;;3.53;1.80;;;12.50;74.90;;;;;;6103088;23;20490;-78
2023/02/18 07:20:03;;;;;;;2.13;1.40;;;12.50;75.00;;;;;;6129089;23;20033;-77
2023/02/18 07:22:29;;;;;;;2.80;1.30;;;12.50;75.00;;;;;;6128808;23;19998;-76
2023/02/18 07:24:54;;;;;;;2.03;1.45;;;12.50;74.90;;;;;;6127873;23;20460;-77
2023/02/18 07:27:21;;;;;;;2.38;1.73;;;12.60;74.90;;;;;;6102402;23;21007;-76
2023/02/18 07:29:47;;;;;;;3.75;1.75;;;12.50;75.10;;;;;;6127959;23;20093;-77
2023/02/18 07:32:15;;;;;;;5.60;2.22;;;12.60;75.20;;;;;;6126716;23;20070;-76
2023/02/18 07:34:41;;;;;;;2.58;1.48;;;12.50;75.10;;;;;;6126736;23;20443;-76
2023/02/18 07:37:08;;;;;;;6.55;2.03;;;12.50;75.20;;;;;;6102343;23;20414;-76
2023/02/18 07:39:43;;;;;;;2.88;1.83;;;12.60;75.20;;;;;;6126621;23;20053;-75
2023/02/18 07:42:10;;;;;;;3.85;1.73;;;12.60;75.30;;;;;;6102947;23;20340;-76
2023/02/18 07:44:36;;;;;;;6.03;2.30;;;12.60;75.30;;;;;;6128380;23;20002;-75
2023/02/18 07:47:04;;;;;;;3.20;2.08;;;12.50;75.10;;;;;;6128281;23;20312;-76
2023/02/18 07:49:30;;;;;;;4.53;2.15;;;12.50;75.20;;;;;;6128839;23;19998;-75
2023/02/18 07:51:56;;;;;;;5.70;2.35;;;12.60;75.10;;;;;;6128915;23;20430;-75
2023/02/18 07:54:22;;;;;;;2.42;1.60;;;12.50;75.20;;;;;;6128649;23;19998;-77
2023/02/18 07:56:48;;;;;;;5.70;1.90;;;12.50;75.10;;;;;;6129104;23;20001;-79
2023/02/18 07:59:14;;;;;;;3.72;2.13;;;12.60;75.00;;;;;;6102902;23;20053;-78
2023/02/18 08:01:40;;;;;;;4.78;2.13;;;12.70;74.90;;;;;;6128818;23;20009;-79
2023/02/18 08:04:06;;;;;;;3.90;2.80;;;12.70;74.70;;;;;;6103184;23;20033;-78
2023/02/18 08:06:38;;;;;;;5.20;2.67;;;12.70;74.40;;;;;;6128917;23;20439;-77
2023/02/18 08:09:04;;;;;;;2.67;1.65;;;12.80;74.40;;;;;;6128726;23;20331;-76
2023/02/18 08:11:31;;;;;;;4.18;1.33;;;12.80;73.50;;;;;;6129031;23;20010;-78
2023/02/18 08:13:57;;;;;;;1.80;1.38;;;12.80;73.70;;;;;;6128350;23;20474;-77
2023/02/18 08:16:23;;;;;;;4.40;1.30;;;12.80;73.60;;;;;;6102648;23;20085;-71
2023/02/18 08:18:52;;;;;;;1.55;1.00;;;12.90;73.50;;;;;;6128426;23;20056;-76
2023/02/18 08:21:20;;;;;;;1.05;0.88;;;12.80;73.40;;;;;;6128737;23;20006;-81
2023/02/18 08:23:46;;;;;;;5.72;1.25;;;12.80;73.40;;;;;;6102501;23;20009;-79
2023/02/18 08:26:12;;;;;;;2.28;1.23;;;12.80;73.30;;;;;;6102705;23;20597;-76
2023/02/18 08:28:38;;;;;;;2.80;1.42;;;12.80;73.50;;;;;;6128391;23;20002;-74
2023/02/18 08:31:04;;;;;;;1.83;1.13;;;12.90;73.50;;;;;;6128213;23;20101;-76
2023/02/18 08:33:30;;;;;;;4.03;1.60;;;12.80;73.60;;;;;;6128611;23;20002;-76
2023/02/18 08:35:57;;;;;;;3.67;1.55;;;12.80;73.80;;;;;;6102781;23;20481;-76
2023/02/18 08:38:23;;;;;;;2.72;1.15;;;12.80;73.80;;;;;;6128484;23;20013;-77
2023/02/18 08:40:49;;;;;;;3.28;1.60;;;12.80;73.60;;;;;;6127189;23;20040;-77
2023/02/18 08:43:16;;;;;;;2.47;1.35;;;12.90;73.60;;;;;;6128534;23;19998;-77
2023/02/18 08:45:44;;;;;;;3.05;1.48;;;12.90;73.70;;;;;;6128165;23;20010;-76
2023/02/18 08:48:12;;;;;;;1.80;1.10;;;12.90;73.50;;;;;;6101849;23;20040;-76
2023/02/18 08:50:38;;;;;;;4.28;1.20;;;12.90;73.20;;;;;;6102465;23;20006;-77
2023/02/18 08:53:04;;;;;;;2.55;1.10;;;13.00;73.00;;;;;;6128086;23;20066;-77
2023/02/18 08:55:32;;;;;;;1.88;1.40;;;13.20;72.60;;;;;;6102406;23;20064;-77
2023/02/18 08:57:58;;;;;;;2.72;1.40;;;13.50;72.20;;;;;;6101708;23;20010;-74
2023/02/18 09:00:24;;;;;;;3.38;1.20;;;14.00;71.00;;;;;;6127468;23;20539;-75
2023/02/18 09:02:50;;;;;;;1.83;0.90;;;13.80;70.20;;;;;;6128391;23;20335;-74
2023/02/18 09:05:15;;;;;;;2.08;0.80;;;14.00;70.00;;;;;;6121322;23;20060;-77
2023/02/18 09:07:41;;;;;;;1.17;0.77;;;14.10;69.20;;;;;;6127268;23;20005;-77
2023/02/18 09:10:08;;;;;;;1.63;0.88;;;14.20;69.20;;;;;;6127732;23;20014;-77
2023/02/18 09:12:34;;;;;;;2.35;1.00;;;14.20;69.40;;;;;;6128293;23;20006;-77
2023/02/18 09:15:00;;;;;;;1.83;0.80;;;14.20;69.30;;;;;;6103978;23;20014;-78
2023/02/18 09:17:26;;;;;;;1.77;1.00;;;14.20;69.20;;;;;;6103935;23;20006;-77
2023/02/18 09:19:52;;;;;;;1.80;1.35;;;14.30;69.00;;;;;;6103201;23;20057;-77
2023/02/18 09:22:18;;;;;;;1.67;0.65;;;14.20;69.10;;;;;;6101590;23;20010;-77
2023/02/18 09:24:44;;;;;;;2.80;0.80;;;14.20;69.10;;;;;;6102986;23;20080;-77
2023/02/18 09:27:09;;;;;;;1.52;0.70;;;14.30;69.30;;;;;;6100587;23;20025;-77
2023/02/18 09:29:38;;;;;;;2.22;1.27;;;14.20;69.60;;;;;;6100551;23;20009;-78
2023/02/18 09:32:05;;;;;;;2.25;1.00;;;14.10;69.70;;;;;;6115522;23;20026;-78
2023/02/18 09:34:31;;;;;;;2.25;1.20;;;14.10;69.40;;;;;;6127910;23;20002;-77
2023/02/18 09:36:56;;;;;;;3.22;1.55;;;14.10;69.70;;;;;;6128652;23;19998;-77
2023/02/18 09:39:22;;;;;;;2.60;1.30;;;14.00;69.70;;;;;;6128969;23;20125;-78
2023/02/18 09:41:59;;;;;;;1.20;0.85;;;14.00;69.60;;;;;;6128000;23;20005;-78
2023/02/18 09:44:36;;;;;;;3.63;1.17;;;13.90;69.50;;;;;;6126207;23;20006;-78
2023/02/18 09:47:10;;;;;;;2.75;1.30;;;13.90;70.20;;;;;;6127002;23;20009;-79
2023/02/18 09:49:42;;;;;;;3.67;1.25;;;13.90;70.10;;;;;;6127482;23;20037;-78
2023/02/18 09:52:26;;;;;;;1.90;0.82;;;14.10;70.10;;;;;;6128272;23;20033;-78
2023/02/18 09:54:52;;;;;;;1.98;1.08;;;14.20;69.60;;;;;;6125700;23;20454;-78
2023/02/18 09:57:36;;;;;;;3.08;1.23;;;14.00;69.70;;;;;;6105420;23;20354;-79
2023/02/18 10:00:12;;;;;;;1.13;0.98;;;14.20;69.60;;;;;;6125970;23;20038;-78
2023/02/18 10:02:56;;;;;;;1.52;0.85;;;14.20;69.40;;;;;;6125012;23;20061;-78
2023/02/18 10:05:23;;;;;;;3.40;0.75;;;14.30;69.50;;;;;;6126254;23;20006;-78
2023/02/18 10:07:54;;;;;;;1.95;0.88;;;14.20;69.00;;;;;;6126151;23;20343;-78
2023/02/18 10:10:33;;;;;;;2.30;1.13;;;14.20;69.10;;;;;;6125515;23;20006;-79
2023/02/18 10:13:00;;;;;;;0.82;0.57;;;14.20;69.10;;;;;;6125366;23;20085;-76
2023/02/18 10:15:29;;;;;;;3.72;1.15;;;14.20;69.20;;;;;;6124225;23;20010;-80
2023/02/18 10:17:56;;;;;;;0.93;0.70;;;14.20;68.80;;;;;;6126281;23;20064;-78
2023/02/18 10:20:26;;;;;;;1.33;0.68;;;14.20;68.60;;;;;;6126199;23;20061;-77
2023/02/18 10:22:54;;;;;;;2.97;0.93;;;14.20;68.30;;;;;;6125345;23;20053;-79
2023/02/18 10:25:23;;;;;;;2.28;1.08;;;14.20;68.50;;;;;;6126558;23;20347;-78
2023/02/18 10:27:51;;;;;;;1.30;0.80;;;14.20;68.20;;;;;;6125946;23;20006;-79
2023/02/18 10:30:31;;;;;;;3.50;0.90;;;14.20;68.60;;;;;;6126531;23;20081;-81
2023/02/18 10:33:08;;;;;;;2.72;0.95;;;14.30;68.60;;;;;;6125255;23;20111;-80
2023/02/18 10:35:59;;;;;;;2.65;0.75;;;14.30;68.00;;;;;;6125802;23;20081;-77
2023/02/18 10:38:36;;;;;;;5.88;1.30;;;14.20;68.00;;;;;;6125991;23;20052;-79
2023/02/18 10:41:30;;;;;;;1.65;0.90;;;14.20;67.30;;;;;;6125659;23;20419;-75
2023/02/18 10:44:14;;;;;;;1.67;0.95;;;14.10;67.90;;;;;;6124577;23;20044;-76
2023/02/18 10:47:07;;;;;;;3.75;0.93;;;14.10;67.80;;;;;;6126191;23;20002;-79
2023/02/18 10:49:46;;;;;;;2.65;0.80;;;14.10;68.20;;;;;;6124953;23;20365;-80
2023/02/18 10:52:16;;;;;;;2.70;1.25;;;14.20;68.10;;;;;;6124569;23;20002;-77
2023/02/18 10:55:05;;;;;;;1.85;1.20;;;14.20;68.00;;;;;;6123352;23;20029;-76
2023/02/18 10:57:32;;;;;;;2.17;1.10;;;14.20;67.50;;;;;;6124981;23;20013;-77
2023/02/18 11:00:16;;;;;;;1.98;1.10;;;14.20;68.10;;;;;;6125231;23;20016;-76
2023/02/18 11:02:42;;;;;;;2.92;1.30;;;14.10;68.10;;;;;;6124752;23;20002;-76
2023/02/18 11:05:26;;;;;;;2.35;1.15;;;14.10;68.30;;;;;;6125220;23;20002;-76
2023/02/18 11:07:55;;;;;;;3.70;2.20;;;14.20;68.50;;;;;;6125594;23;20002;-76
2023/02/18 11:10:31;;;;;;;6.32;2.03;;;14.30;68.00;;;;;;6125258;23;20045;-79
2023/02/18 11:13:04;;;;;;;6.25;2.40;;;14.30;67.70;;;;;;6123997;23;20013;-76
2023/02/18 11:15:30;;;;;;;4.38;1.60;;;14.40;67.30;;;;;;6125396;23;20060;-76
2023/02/18 11:18:11;;;;;;;6.28;2.30;;;14.40;67.40;;;;;;6122956;23;20010;-77
2023/02/18 11:20:37;;;;;;;6.35;2.20;;;14.50;67.70;;;;;;6124665;23;20472;-77
2023/02/18 11:23:06;;;;;;;7.35;2.60;;;14.50;67.10;;;;;;6123584;23;20479;-77
2023/02/18 11:25:34;;;;;;;2.42;1.38;;;14.60;67.30;;;;;;6125491;23;20006;-76
2023/02/18 11:28:16;;;;;;;2.97;1.52;;;14.60;67.00;;;;;;6125216;23;20006;-76
2023/02/18 11:30:45;;;;;;;4.40;1.40;;;14.60;66.80;;;;;;6124765;23;20017;-76
2023/02/18 11:33:20;;;;;;;2.83;1.23;;;14.60;67.00;;;;;;6122001;23;20018;-76
2023/02/18 11:35:55;;;;;;;2.72;1.40;;;14.50;66.80;;;;;;6122114;23;20010;-76
2023/02/18 11:38:43;;;;;;;2.30;1.10;;;14.50;67.10;;;;;;6123359;23;20124;-76
2023/02/18 11:41:13;;;;;;;2.60;0.82;;;14.60;67.10;;;;;;6123988;23;20010;-77
2023/02/18 11:43:44;;;;;;;;;;;14.60;67.30;;;;;;6124714;23;20030;-76
2023/02/18 11:46:28;;;;;;;;;;;14.50;66.50;;;;;;6124484;23;19933;-76
2023/02/18 11:48:54;;;;;;;4.28;1.70;;;14.60;67.00;;;;;;6123515;23;19912;-75
2023/02/18 11:51:27;;;;;;;2.30;0.95;;;14.80;66.10;;;;;;6124028;23;20360;-76
2023/02/18 11:53:59;;;;;;;2.92;1.10;;;14.80;65.50;;;;;;6124483;23;20064;-76
2023/02/18 11:56:28;;;;;;;5.97;1.35;;;14.80;65.30;;;;;;6123712;23;20005;-77
2023/02/18 11:58:55;;;;;;;3.30;0.95;;;14.80;65.30;;;;;;6121251;23;20029;-77
2023/02/18 12:01:40;;;;;;;3.55;1.30;;;14.80;65.20;;;;;;6127256;23;20010;-78
2023/02/18 12:04:17;;;;;;;4.55;0.98;;;14.80;64.00;;;;;;6127441;23;19998;-79
2023/02/18 12:07:03;;;;;;;2.83;1.05;;;14.80;64.20;;;;;;6128746;23;19998;-84
2023/02/18 12:09:36;;;;;;;1.95;0.95;;;14.90;64.60;;;;;;6107186;23;20010;-78
2023/02/18 12:12:25;;;;;;;4.57;1.00;;;14.80;64.20;;;;;;6132251;23;20001;-77
2023/02/18 12:14:54;;;;;;;2.85;1.05;;;14.80;64.40;;;;;;6127835;23;20009;-76
2023/02/18 12:17:57;;;;;;;2.90;1.00;;;14.90;63.90;;;;;;6128496;23;20499;-79
2023/02/18 12:20:41;;;;;;;5.97;1.55;;;15.00;63.60;;;;;;6128290;23;20006;-78
2023/02/18 12:23:30;;;;;;;4.20;1.33;;;15.10;64.10;;;;;;6128695;23;20513;-79
2023/02/18 12:25:58;;;;;;;5.70;1.63;;;15.00;63.70;;;;;;6128725;23;20002;-77
2023/02/18 12:28:36;;;;;;;3.53;1.58;;;14.90;63.60;;;;;;6128731;23;20001;-77
2023/02/18 12:31:26;;;;;;;2.05;1.10;;;14.90;64.20;;;;;;6128205;23;20032;-78
2023/02/18 12:33:55;;;;;;;4.55;1.17;;;14.80;64.30;;;;;;6128146;23;20009;-76
2023/02/18 12:36:31;;;;;;;5.85;1.67;;;14.80;64.50;;;;;;6128488;23;20316;-77
2023/02/18 12:39:17;;;;;;;4.35;1.90;;;14.90;64.60;;;;;;6128870;23;20414;-80
2023/02/18 12:41:46;;;;;;;2.90;1.08;;;15.10;64.40;;;;;;6127768;23;20065;-77
2023/02/18 12:44:20;;;;;;;3.63;1.40;;;15.20;64.20;;;;;;6128687;23;20005;-75
2023/02/18 12:47:10;;;;;;;3.92;1.58;;;15.00;62.90;;;;;;6127431;23;20009;-78
2023/02/18 12:50:02;;;;;;;6.93;1.10;;;15.00;63.20;;;;;;6129695;23;20025;-82
2023/02/18 12:52:34;;;;;;;2.90;1.17;;;15.00;63.40;;;;;;6123592;23;20009;-79
2023/02/18 12:55:30;;;;;;;3.22;1.70;;;15.10;63.60;;;;;;6103751;23;20002;-80
2023/02/18 12:58:37;;;;;;;3.80;1.50;;;15.00;63.40;;;;;;6098420;23;20458;-78
2023/02/18 13:01:47;;;;;;;2.10;0.90;;;15.00;63.70;;;;;;5982353;23;20206;-78
2023/02/18 13:04:31;;;;;;;2.60;1.10;;;15.00;63.10;;;;;;6075901;23;20012;-78
2023/02/18 13:06:56;;;;;;;3.90;1.42;;;15.10;63.40;;;;;;6128939;23;19998;-78
2023/02/18 13:09:25;;;;;;;2.40;1.20;;;14.90;63.50;;;;;;6129536;23;20073;-78
2023/02/18 13:11:58;;;;;;;2.25;1.23;;;14.90;64.00;;;;;;6128623;23;20009;-78
2023/02/18 13:14:44;;;;;;;3.67;1.17;;;14.90;64.20;;;;;;6129200;23;20006;-78
2023/02/18 13:17:10;;;;;;;3.17;1.08;;;14.90;64.10;;;;;;6128756;23;20089;-78
2023/02/18 13:19:42;;;;;;;4.40;1.50;;;14.90;64.20;;;;;;6128971;23;20809;-78
2023/02/18 13:22:11;;;;;;;3.90;1.33;;;14.90;63.80;;;;;;6103759;23;20005;-77
2023/02/18 13:24:39;;;;;;;3.05;1.35;;;14.90;64.20;;;;;;6129768;23;20056;-78
2023/02/18 13:27:40;;;;;;;2.38;1.10;;;14.90;64.30;;;;;;6130448;23;20009;-77
2023/02/18 13:30:16;;;;;;;4.20;1.20;;;15.00;64.30;;;;;;6104185;23;20446;-78
2023/02/18 13:33:03;;;;;;;1.98;1.17;;;15.00;64.60;;;;;;6126095;23;20788;-78
2023/02/18 13:35:47;;;;;;;3.58;1.45;;;15.00;64.30;;;;;;6128247;23;20357;-77
2023/02/18 13:38:51;;;;;;;7.78;1.90;;;14.90;63.80;;;;;;6124476;23;20014;-77
2023/02/18 13:41:18;;;;;;;5.95;2.47;;;14.90;64.10;;;;;;6128336;23;20006;-77
2023/02/18 13:43:44;;;;;;;5.20;2.13;;;15.10;64.00;;;;;;6127498;23;20343;-77
2023/02/18 13:46:21;;;;;;;8.60;2.50;;;15.20;63.60;;;;;;6129255;23;20013;-77
2023/02/18 13:48:48;;;;;;;6.10;2.42;;;15.20;63.40;;;;;;6126955;23;20444;-77
2023/02/18 13:51:39;;;;;;;4.03;1.60;;;15.20;63.00;;;;;;6126117;23;19998;-77
2023/02/18 13:54:11;;;;;;;5.47;1.88;;;15.30;62.70;;;;;;6126731;23;20006;-77
2023/02/18 13:56:41;;;;;;;3.60;1.48;;;15.30;62.90;;;;;;6123812;23;20013;-77
2023/02/18 13:59:28;;;;;;;2.75;1.05;;;15.30;62.70;;;;;;6127832;23;20065;-77
2023/02/18 14:01:54;;;;;;;3.70;1.30;;;15.20;62.40;;;;;;6127197;23;20010;-76
2023/02/18 14:04:38;;;;;;;2.72;1.23;;;15.10;62.90;;;;;;6129404;23;20056;-76
2023/02/18 14:07:43;;;;;;;4.22;2.08;;;15.10;63.00;;;;;;6128490;23;20009;-76
2023/02/18 14:10:11;;;;;;;3.85;1.20;;;15.20;62.90;;;;;;6128827;23;20081;-76
2023/02/18 14:12:55;;;;;;;3.63;1.30;;;15.10;62.80;;;;;;6128918;23;20030;-77
2023/02/18 14:15:21;;;;;;;2.35;1.30;;;15.10;63.40;;;;;;6127816;23;20583;-76
2023/02/18 14:18:12;;;;;;;4.95;1.40;;;15.20;63.10;;;;;;6127957;23;20002;-77
2023/02/18 14:20:38;;;;;;;1.38;1.10;;;15.10;62.90;;;;;;6125086;23;20085;-77
2023/02/18 14:23:22;;;;;;;1.73;0.90;;;15.10;63.10;;;;;;6125040;23;19998;-76
2023/02/18 14:25:56;;;;;;;3.03;1.45;;;15.10;63.10;;;;;;6123538;23;20009;-76
2023/02/18 14:29:02;;;;;;;3.90;1.25;;;15.00;63.20;;;;;;6127688;23;20017;-76
2023/02/18 14:32:03;;;;;;;3.58;1.42;;;15.10;63.30;;;;;;6091973;23;20029;-76
2023/02/18 14:34:59;;;;;;;3.75;1.25;;;15.10;63.20;;;;;;6128437;23;20562;-76
2023/02/18 14:37:43;;;;;;;3.95;1.27;;;15.00;63.30;;;;;;6123988;23;20069;-77
2023/02/18 14:40:20;;;;;;;3.38;1.50;;;15.00;63.60;;;;;;6128575;23;20064;-76
2023/02/18 14:42:54;;;;;;;2.63;1.25;;;14.90;63.50;;;;;;6126426;23;20002;-76
2023/02/18 14:45:59;;;;;;;7.90;1.42;;;14.90;63.70;;;;;;6125905;23;20006;-76
2023/02/18 14:48:50;;;;;;;2.38;1.40;;;14.90;64.10;;;;;;6124453;23;19998;-76
2023/02/18 14:51:18;;;;;;;;;;;14.90;64.10;;;;;;6124661;23;20052;-76
2023/02/18 14:53:44;;;;;;;6.32;2.53;;;14.90;64.10;;;;;;6126471;23;19908;-76
2023/02/18 14:56:13;;;;;;;8.13;4.07;;;14.90;64.40;;;;;;6128147;23;20013;-77
2023/02/18 14:58:55;;;;;;;4.75;2.10;;;15.00;64.30;;;;;;6128143;23;20482;-75
2023/02/18 15:01:26;;;;;;;3.78;1.73;;;15.00;64.30;;;;;;6127539;23;20085;-76
2023/02/18 15:03:53;;;;;;;2.33;1.20;;;14.90;64.60;;;;;;6128580;23;20329;-76
2023/02/18 15:06:37;;;;;;;4.40;1.48;;;14.80;64.60;;;;;;6120152;23;20746;-77
2023/02/18 15:09:21;;;;;;;1.77;0.93;;;14.80;64.70;;;;;;6127765;23;20002;-78
2023/02/18 15:12:09;;;;;;;3.80;1.45;;;14.80;64.70;;;;;;6122463;23;20014;-76
2023/02/18 15:14:41;;;;;;;4.13;2.40;;;14.90;64.60;;;;;;6128233;23;20006;-76
2023/02/18 15:17:16;;;;;;;3.35;1.45;;;14.90;64.70;;;;;;6124043;23;20017;-77
2023/02/18 15:19:54;;;;;;;8.25;2.88;;;14.90;65.20;;;;;;6128375;23;20065;-77
2023/02/18 15:22:22;;;;;;;6.90;3.33;;;14.90;64.70;;;;;;6120924;23;20021;-77
2023/02/18 15:24:49;;;;;;;6.05;1.75;;;14.90;64.80;;;;;;6128357;23;20073;-78
2023/02/18 15:27:18;;;;;;;6.20;2.28;;;14.90;64.70;;;;;;6124182;23;20014;-76
2023/02/18 15:29:47;;;;;;;4.30;1.80;;;14.90;64.70;;;;;;6124340;23;20457;-78
2023/02/18 15:32:23;;;;;;;3.90;1.53;;;14.90;64.80;;;;;;6128029;23;20010;-77
2023/02/18 15:34:51;;;;;;;3.50;1.63;;;14.80;64.20;;;;;;6101893;23;20230;-76
2023/02/18 15:37:17;;;;;;;4.80;2.30;;;14.80;64.60;;;;;;6127294;23;20012;-77
2023/02/18 15:39:45;;;;;;;4.43;1.70;;;14.80;64.70;;;;;;6126469;23;20334;-77
2023/02/18 15:42:22;;;;;;;5.20;1.42;;;14.80;65.10;;;;;;6128144;23;20005;-89
2023/02/18 15:44:54;;;;;;;1.90;1.10;;;14.80;65.10;;;;;;6098623;23;20010;-78
2023/02/18 15:47:20;;;;;;;2.13;1.40;;;14.80;65.20;;;;;;6124371;23;20589;-88
2023/02/18 15:49:51;;;;;;;5.10;1.25;;;14.80;65.20;;;;;;6128571;23;20005;-82
2023/02/18 15:52:24;;;;;;;2.08;1.30;;;14.70;65.10;;;;;;6128600;23;20005;-79
2023/02/18 15:54:49;;;;;;;4.47;1.58;;;14.70;65.00;;;;;;6102306;23;20006;-80
2023/02/18 15:57:15;;;;;;;4.68;2.15;;;14.70;65.60;;;;;;6120622;23;20355;-82
2023/02/18 15:59:55;;;;;;;5.85;2.25;;;14.70;65.70;;;;;;6123520;23;20002;-83
2023/02/18 16:02:23;;;;;;;5.07;2.50;;;14.60;65.90;;;;;;6102384;23;20622;-82
2023/02/18 16:04:57;;;;;;;6.35;2.97;;;14.60;65.70;;;;;;6126967;23;20006;-80
2023/02/18 16:07:23;;;;;;;6.93;3.15;;;14.60;66.00;;;;;;6127703;23;20149;-83
2023/02/18 16:09:49;;;;;;;4.07;1.90;;;14.60;66.00;;;;;;6100701;23;20006;-80
2023/02/18 16:12:27;;;;;;;5.35;2.22;;;14.50;66.50;;;;;;6126844;23;20404;-79
2023/02/18 16:14:54;;;;;;;4.65;2.20;;;14.50;66.70;;;;;;6126157;23;20375;-79
2023/02/18 16:17:24;;;;;;;6.70;3.20;;;14.50;66.70;;;;;;6100517;23;20002;-81
2023/02/18 16:19:55;;;;;;;4.93;3.00;;;14.50;66.70;;;;;;6127635;23;20005;-81
2023/02/18 16:22:38;;;;;;;6.50;2.55;;;14.40;67.00;;;;;;6124825;23;20002;-79
2023/02/18 16:25:13;;;;;;;7.05;3.30;;;14.50;66.90;;;;;;6127074;23;20535;-79
2023/02/18 16:28:15;;;;;;;4.85;1.70;;;14.50;67.10;;;;;;6126571;23;20012;-79
2023/02/18 16:30:44;;;;;;;3.55;1.92;;;14.50;66.80;;;;;;6124767;23;20080;-81
2023/02/18 16:33:10;;;;;;;2.78;1.73;;;14.50;66.90;;;;;;6098706;23;20021;-79
2023/02/18 16:35:36;;;;;;;4.80;2.22;;;14.40;66.80;;;;;;6127449;23;20077;-78
2023/02/18 16:38:02;;;;;;;5.65;1.98;;;14.40;67.30;;;;;;6124281;23;20006;-83
2023/02/18 16:40:38;;;;;;;3.30;1.90;;;14.40;67.20;;;;;;6127423;23;20002;-78
2023/02/18 16:43:16;;;;;;;4.55;1.98;;;14.30;67.00;;;;;;6127173;23;20391;-78
2023/02/18 16:45:50;;;;;;;5.20;1.95;;;14.30;67.40;;;;;;6127148;23;20002;-79
2023/02/18 16:48:32;;;;;;;3.58;1.85;;;14.30;67.40;;;;;;6124973;23;20002;-78
2023/02/18 16:51:11;;;;;;;3.08;2.10;;;14.30;67.50;;;;;;6123769;23;20134;-79
2023/02/18 16:53:38;;;;;;;7.80;1.90;;;14.30;67.60;;;;;;6127683;23;20320;-77
2023/02/18 16:56:05;;;;;;;4.45;1.98;;;14.30;67.40;;;;;;6124268;23;20379;-78
2023/02/18 16:58:30;;;;;;;6.93;2.40;;;14.30;67.60;;;;;;6126918;23;20346;-78
2023/02/18 17:00:56;;;;;;;4.40;1.90;;;14.30;67.70;;;;;;6126888;23;20017;-78
2023/02/18 17:03:22;;;;;;;6.45;2.58;;;14.30;67.50;;;;;;6124186;23;20002;-78
2023/02/18 17:05:48;;;;;;;4.95;2.30;;;14.30;67.60;;;;;;6126761;23;20015;-78
2023/02/18 17:08:23;;;;;;;2.60;2.25;;;14.20;67.70;;;;;;6126590;23;20458;-78
2023/02/18 17:10:56;;;;;;;5.57;2.60;;;14.20;67.80;;;;;;6123372;23;20049;-78
2023/02/18 17:13:26;;;;;;;6.90;3.65;;;14.20;67.80;;;;;;6126055;23;20083;-79
2023/02/18 17:15:54;;;;;;;11.05;5.07;;;14.20;68.10;;;;;;6122339;23;20438;-78
2023/02/18 17:18:20;;;;;;;9.25;4.32;;;14.30;68.10;;;;;;6126692;23;20010;-78
2023/02/18 17:20:50;;;;;;;10.65;4.85;;;14.20;67.90;;;;;;6126503;23;20010;-78
2023/02/18 17:23:20;;;;;;;6.70;4.70;;;14.20;68.10;;;;;;6123434;23;19998;-78
2023/02/18 17:25:47;;;;;;;10.30;5.40;;;14.20;68.20;;;;;;6117106;23;20028;-79
2023/02/18 17:28:17;;;;;;;7.78;4.25;;;14.20;68.20;;;;;;6126873;23;20462;-78
2023/02/18 17:30:47;;;;;;;8.65;4.05;;;14.10;68.40;;;;;;6123351;23;20339;-78
2023/02/18 17:33:16;;;;;;;10.00;4.93;;;14.10;68.60;;;;;;6122090;23;20030;-79
2023/02/18 17:35:41;;;;;;;5.75;3.15;;;14.10;68.80;;;;;;6126774;23;20009;-77
2023/02/18 17:38:16;;;;;;;5.50;3.08;;;14.10;68.70;;;;;;6124126;23;20412;-79
2023/02/18 17:40:41;;;;;;;5.10;3.03;;;14.10;68.50;;;;;;6126707;23;20339;-82
2023/02/18 17:43:15;;;;;;;7.75;3.78;;;14.10;68.70;;;;;;6094542;23;20087;-81
2023/02/18 17:45:52;;;;;;;8.35;3.97;;;14.00;69.10;;;;;;6101138;23;20006;-76
2023/02/18 17:48:19;;;;;;;6.38;3.05;;;13.90;69.10;;;;;;6124679;23;20001;-77
2023/02/18 17:50:45;;;;;;;9.38;5.28;;;13.90;69.20;;;;;;6103126;23;20355;-77
2023/02/18 17:53:30;;;;;;;7.07;4.63;;;13.80;69.40;;;;;;6126834;23;20085;-80
2023/02/18 17:55:56;;;;;;;5.85;3.95;;;13.90;69.20;;;;;;6102978;23;20037;-79
2023/02/18 17:58:21;;;;;;;8.32;3.85;;;13.90;69.20;;;;;;6125453;23;20002;-79
2023/02/18 18:00:57;;;;;;;6.82;4.30;;;13.90;69.30;;;;;;6101532;23;20017;-81
2023/02/18 18:03:22;;;;;;;6.50;3.42;;;13.90;69.30;;;;;;6129278;23;20529;-81
2023/02/18 18:05:53;;;;;;;6.10;2.78;;;13.90;69.40;;;;;;6103489;23;20018;-79
2023/02/18 18:08:19;;;;;;;6.05;3.00;;;13.90;69.40;;;;;;6125910;23;20465;-80
2023/02/18 18:10:53;;;;;;;7.82;3.38;;;13.80;69.60;;;;;;6102961;23;20010;-80
2023/02/18 18:13:33;;;;;;;3.25;2.75;;;13.80;69.70;;;;;;6096278;23;20080;-82
2023/02/18 18:16:20;;;;;;;7.93;3.27;;;13.80;70.00;;;;;;6100838;23;20002;-83
2023/02/18 18:18:46;;;;;;;5.85;4.00;;;13.80;70.00;;;;;;6103558;23;20061;-85
2023/02/18 18:21:35;;;;;;;5.70;3.97;;;13.80;69.70;;;;;;6129789;23;20096;-83
2023/02/18 18:24:01;;;;;;;5.50;3.08;;;13.80;70.10;;;;;;6062581;23;20006;-85
2023/02/18 18:26:28;;;;;;;8.32;4.68;;;13.80;69.90;;;;;;6128707;23;20006;-83
2023/02/18 18:28:53;;;;;;;8.85;4.07;;;13.80;69.90;;;;;;6099930;23;20185;-80
2023/02/18 18:31:19;;;;;;;21.15;11.02;;;13.80;70.10;;;;;;6108449;23;20030;-80
2023/02/18 18:33:51;;;;;;;16.33;8.43;;;13.80;70.20;;;;;;6123622;23;20018;-80
2023/02/18 18:36:18;;;;;;;15.20;8.32;;;13.90;70.10;;;;;;6124523;23;20446;-82
2023/02/18 18:39:02;;;;;;;11.95;7.95;;;13.80;70.10;;;;;;6127804;23;20045;-81
2023/02/18 18:41:27;;;;;;;12.32;7.10;;;13.80;70.30;;;;;;6128682;23;20014;-82
2023/02/18 18:43:53;;;;;;;7.20;5.85;;;13.80;70.50;;;;;;6127166;23;20126;-79